Time;durP1;ratioP1;P1;durP2;ratioP2;P2;SDS_P1;SDS_P2;PMS_P1;PMS_P2;Temp;Humidity;BMP_temperature;BMP_pressure;BME280_temperature;BME280_humidity;BME280_pressure;Samples;Min_cycle;Max_cycle;Signal;HPM_P1;HPM_P2
2023/04/17 00:01:39;;;;;;;0.55;0.55;;;19.40;52.70;;;;;;5014893;28;20203;-69
2023/04/17 00:04:09;;;;;;;0.60;0.60;;;19.50;52.80;;;;;;5032740;28;20663;-69
2023/04/17 00:06:42;;;;;;;0.40;0.40;;;19.50;52.80;;;;;;5031697;28;20214;-69
2023/04/17 00:09:08;;;;;;;0.50;0.50;;;19.40;52.70;;;;;;5015325;28;20581;-69
2023/04/17 00:11:34;;;;;;;0.52;0.50;;;19.50;52.80;;;;;;5032502;28;20203;-69
2023/04/17 00:14:00;;;;;;;0.40;0.40;;;19.40;52.70;;;;;;5032050;28;20199;-69
2023/04/17 00:16:26;;;;;;;0.73;0.50;;;19.50;53.30;;;;;;5011762;28;20249;-68
2023/04/17 00:18:55;;;;;;;0.65;0.65;;;19.40;52.70;;;;;;5029591;28;20183;-69
2023/04/17 00:21:21;;;;;;;0.55;0.55;;;19.40;52.70;;;;;;5032336;28;20218;-69
2023/04/17 00:23:47;;;;;;;0.60;0.60;;;19.40;52.70;;;;;;5031092;28;20199;-69
2023/04/17 00:26:14;;;;;;;0.73;0.73;;;19.50;52.80;;;;;;5031187;28;20336;-69
2023/04/17 00:28:41;;;;;;;0.60;0.60;;;19.40;52.70;;;;;;5031037;28;20214;-69
2023/04/17 00:31:07;;;;;;;0.50;0.50;;;19.40;53.10;;;;;;5031038;28;20215;-69
2023/04/17 00:33:33;;;;;;;0.45;0.45;;;19.40;52.70;;;;;;5031083;28;20191;-69
2023/04/17 00:36:00;;;;;;;1.25;0.60;;;19.50;52.80;;;;;;5032177;28;20218;-70
2023/04/17 00:38:26;;;;;;;0.50;0.50;;;19.40;52.70;;;;;;5014498;28;20194;-69
2023/04/17 00:40:52;;;;;;;0.50;0.50;;;19.40;52.70;;;;;;5030797;28;20191;-69
2023/04/17 00:43:17;;;;;;;0.50;0.50;;;19.40;52.70;;;;;;5030712;28;20182;-69
2023/04/17 00:45:46;;;;;;;0.50;0.50;;;19.40;52.70;;;;;;5030847;28;20195;-69
2023/04/17 00:48:16;;;;;;;0.47;0.40;;;19.40;52.70;;;;;;5030695;28;20261;-69
2023/04/17 00:50:44;;;;;;;0.50;0.50;;;19.40;52.70;;;;;;5030676;28;20274;-69
2023/04/17 00:53:11;;;;;;;0.43;0.40;;;19.50;52.80;;;;;;5038420;28;20666;-69
2023/04/17 00:55:39;;;;;;;0.57;0.57;;;19.50;52.80;;;;;;5030773;28;20195;-69
2023/04/17 00:58:05;;;;;;;0.50;0.50;;;19.40;52.70;;;;;;5030820;28;20198;-69
2023/04/17 01:00:31;;;;;;;0.50;0.50;;;19.50;52.80;;;;;;5030978;28;20273;-69
2023/04/17 01:02:57;;;;;;;0.50;0.50;;;19.40;52.70;;;;;;5030327;28;20211;-68
2023/04/17 01:05:26;;;;;;;0.55;0.55;;;19.40;52.70;;;;;;5030932;28;20623;-68
2023/04/17 01:07:54;;;;;;;1.08;0.50;;;19.40;52.70;;;;;;5030487;28;20187;-69
2023/04/17 01:10:20;;;;;;;0.40;0.40;;;19.40;52.70;;;;;;5032140;28;20193;-69
2023/04/17 01:12:48;;;;;;;0.50;0.50;;;19.40;52.70;;;;;;5033975;28;20503;-69
2023/04/17 01:15:15;;;;;;;1.17;0.63;;;19.40;52.70;;;;;;5034655;28;20184;-69
2023/04/17 01:17:41;;;;;;;1.15;0.55;;;19.40;52.70;;;;;;5034849;28;20175;-69
2023/04/17 01:20:09;;;;;;;0.70;0.57;;;19.40;52.70;;;;;;5034758;28;20245;-69
2023/04/17 01:22:36;;;;;;;0.55;0.55;;;19.40;52.70;;;;;;5017853;28;20207;-69
2023/04/17 01:25:03;;;;;;;0.57;0.57;;;19.40;52.70;;;;;;5034312;28;20644;-69
2023/04/17 01:27:34;;;;;;;0.50;0.50;;;19.40;52.70;;;;;;5015318;28;20184;-69
2023/04/17 01:30:00;;;;;;;0.60;0.60;;;19.40;52.70;;;;;;5033078;28;20214;-69
2023/04/17 01:32:27;;;;;;;0.50;0.50;;;19.40;52.70;;;;;;5033971;28;20601;-69
2023/04/17 01:34:53;;;;;;;0.40;0.40;;;19.40;52.70;;;;;;5034209;28;20191;-69
2023/04/17 01:37:18;;;;;;;0.47;0.47;;;19.40;52.70;;;;;;5034595;28;20180;-69
2023/04/17 01:39:44;;;;;;;0.40;0.40;;;19.40;52.70;;;;;;5017866;28;20224;-69
2023/04/17 01:42:10;;;;;;;0.40;0.40;;;19.40;52.70;;;;;;5042404;28;20207;-69
2023/04/17 01:44:36;;;;;;;0.32;0.32;;;19.40;52.70;;;;;;5034427;28;20206;-69
2023/04/17 01:47:03;;;;;;;0.50;0.50;;;19.40;52.70;;;;;;5033990;28;20226;-69
2023/04/17 01:49:29;;;;;;;0.50;0.50;;;19.40;52.70;;;;;;5033836;28;20230;-69
2023/04/17 01:51:54;;;;;;;0.60;0.60;;;19.40;52.70;;;;;;5033870;28;20218;-69
2023/04/17 01:54:21;;;;;;;0.40;0.40;;;19.40;52.70;;;;;;5014529;28;20187;-69
2023/04/17 01:56:46;;;;;;;0.57;0.57;;;19.40;52.70;;;;;;5027518;28;20215;-69
2023/04/17 01:59:12;;;;;;;0.50;0.50;;;19.40;52.70;;;;;;5033744;28;20187;-68
2023/04/17 02:01:38;;;;;;;0.40;0.40;;;19.40;52.70;;;;;;5016913;28;20203;-69
2023/04/17 02:04:04;;;;;;;0.40;0.40;;;19.40;52.70;;;;;;5033744;28;20187;-69
2023/04/17 02:06:31;;;;;;;0.40;0.40;;;19.40;52.70;;;;;;5005819;28;20597;-69
2023/04/17 02:08:58;;;;;;;0.40;0.40;;;19.40;52.70;;;;;;5031675;28;20203;-69
2023/04/17 02:11:25;;;;;;;0.60;0.60;;;19.40;52.70;;;;;;5034110;28;20233;-69
2023/04/17 02:13:51;;;;;;;0.60;0.60;;;19.40;52.70;;;;;;5032993;28;20640;-69
2023/04/17 02:16:20;;;;;;;0.60;0.60;;;19.40;52.70;;;;;;5024816;28;20306;-68
2023/04/17 02:18:48;;;;;;;0.50;0.50;;;19.40;52.70;;;;;;5017119;28;20187;-69
2023/04/17 02:21:13;;;;;;;0.40;0.40;;;19.40;52.70;;;;;;5024895;28;20690;-69
2023/04/17 02:23:39;;;;;;;0.40;0.40;;;19.40;52.70;;;;;;5033398;28;20179;-68
2023/04/17 02:26:05;;;;;;;0.40;0.40;;;19.40;52.70;;;;;;5016903;28;20195;-69
2023/04/17 02:28:31;;;;;;;0.63;0.63;;;19.40;52.70;;;;;;5033181;28;20226;-69
2023/04/17 02:31:01;;;;;;;0.38;0.38;;;19.40;52.70;;;;;;5033111;28;20252;-68
2023/04/17 02:33:26;;;;;;;0.40;0.40;;;19.40;52.70;;;;;;5033018;28;20211;-69
2023/04/17 02:35:52;;;;;;;0.63;0.60;;;19.40;52.70;;;;;;5033184;28;20206;-69
2023/04/17 02:38:23;;;;;;;0.50;0.50;;;19.40;52.70;;;;;;5028262;28;20187;-69
2023/04/17 02:40:49;;;;;;;0.68;0.68;;;19.40;52.70;;;;;;5029915;28;20194;-69
2023/04/17 02:43:16;;;;;;;0.50;0.50;;;19.40;52.70;;;;;;5049250;28;20183;-69
2023/04/17 02:45:41;;;;;;;0.93;0.50;;;19.40;52.70;;;;;;5024849;28;20233;-69
2023/04/17 02:48:08;;;;;;;0.40;0.40;;;19.40;52.70;;;;;;5032644;28;20199;-69
2023/04/17 02:50:33;;;;;;;0.43;0.43;;;19.40;52.70;;;;;;5016595;28;20196;-69
2023/04/17 02:53:08;;;;;;;0.50;0.50;;;19.40;53.30;;;;;;5049199;28;20199;-69
2023/04/17 02:55:34;;;;;;;0.50;0.50;;;19.40;52.70;;;;;;5032790;28;20185;-69
2023/04/17 02:58:01;;;;;;;0.50;0.50;;;19.30;53.20;;;;;;5032569;28;20183;-69
2023/04/17 03:00:28;;;;;;;0.63;0.63;;;19.30;52.60;;;;;;5032743;28;20183;-69
2023/04/17 03:02:53;;;;;;;0.50;0.50;;;19.40;52.70;;;;;;5032248;28;20199;-69
2023/04/17 03:05:22;;;;;;;0.50;0.50;;;19.30;52.60;;;;;;5032903;28;20249;-69
2023/04/17 03:07:51;;;;;;;0.50;0.50;;;19.30;52.60;;;;;;5032721;28;20187;-69
2023/04/17 03:10:17;;;;;;;0.40;0.40;;;19.40;52.70;;;;;;5032450;28;20207;-69
2023/04/17 03:12:44;;;;;;;0.50;0.50;;;19.30;52.60;;;;;;5032082;28;20211;-69
2023/04/17 03:15:11;;;;;;;0.63;0.57;;;19.40;52.70;;;;;;5032604;28;20187;-69
2023/04/17 03:17:37;;;;;;;0.50;0.50;;;19.30;52.60;;;;;;5032681;28;20244;-69
2023/04/17 03:20:06;;;;;;;0.50;0.50;;;19.30;52.60;;;;;;5006415;28;20548;-69
2023/04/17 03:22:32;;;;;;;0.50;0.50;;;19.40;52.70;;;;;;5033334;28;20222;-69
2023/04/17 03:24:58;;;;;;;0.50;0.50;;;19.30;53.20;;;;;;5032382;28;20191;-69
2023/04/17 03:27:32;;;;;;;1.20;0.50;;;19.40;52.70;;;;;;5032404;28;20186;-69
2023/04/17 03:29:57;;;;;;;0.60;0.60;;;19.40;52.70;;;;;;5032074;28;20203;-69
2023/04/17 03:32:25;;;;;;;0.60;0.60;;;19.40;52.70;;;;;;5031256;28;20268;-69
2023/04/17 03:34:51;;;;;;;0.50;0.50;;;19.30;52.60;;;;;;5032240;28;20179;-69
2023/04/17 03:37:16;;;;;;;0.63;0.63;;;19.30;52.60;;;;;;5024034;28;20179;-69
2023/04/17 03:39:43;;;;;;;0.50;0.50;;;19.40;52.70;;;;;;5032096;28;20207;-69
2023/04/17 03:42:13;;;;;;;0.50;0.50;;;19.30;52.60;;;;;;5031323;28;20211;-69
2023/04/17 03:44:39;;;;;;;0.50;0.50;;;19.30;52.60;;;;;;5031733;28;20274;-69
2023/04/17 03:47:04;;;;;;;0.60;0.60;;;19.30;52.60;;;;;;5031646;28;20258;-69
2023/04/17 03:49:31;;;;;;;0.40;0.40;;;19.30;52.60;;;;;;5031822;28;20207;-69
2023/04/17 03:51:57;;;;;;;0.40;0.40;;;19.30;52.70;;;;;;5031591;28;20266;-69
2023/04/17 03:54:22;;;;;;;0.77;0.52;;;19.30;52.60;;;;;;5036102;28;20176;-69
2023/04/17 03:56:50;;;;;;;0.30;0.30;;;19.30;52.60;;;;;;5031583;28;20190;-69
2023/04/17 03:59:17;;;;;;;0.40;0.40;;;19.30;52.60;;;;;;5031368;28;20325;-68
2023/04/17 04:01:45;;;;;;;0.40;0.40;;;19.30;52.60;;;;;;5012041;28;20589;-69
2023/04/17 04:04:20;;;;;;;0.30;0.30;;;19.30;52.60;;;;;;5032763;28;20187;-69
2023/04/17 04:06:56;;;;;;;0.40;0.40;;;19.40;52.80;;;;;;5031351;28;20188;-67
2023/04/17 04:09:24;;;;;;;0.50;0.50;;;19.40;52.70;;;;;;5031323;28;20199;-69
2023/04/17 04:11:50;;;;;;;0.47;0.47;;;19.30;52.60;;;;;;5031148;28;20203;-69
2023/04/17 04:14:16;;;;;;;0.60;0.60;;;19.30;52.60;;;;;;5031195;28;20183;-69
2023/04/17 04:16:45;;;;;;;0.50;0.50;;;19.40;52.70;;;;;;5024446;28;20187;-68
2023/04/17 04:19:12;;;;;;;0.50;0.50;;;19.30;52.60;;;;;;5030327;28;20187;-69
2023/04/17 04:21:38;;;;;;;0.60;0.60;;;19.30;52.60;;;;;;5031366;28;20207;-69
2023/04/17 04:24:08;;;;;;;0.50;0.50;;;19.30;52.60;;;;;;5015231;28;20191;-69
2023/04/17 04:26:36;;;;;;;0.50;0.50;;;19.40;52.70;;;;;;5015168;28;20194;-69
2023/04/17 04:29:02;;;;;;;0.60;0.60;;;19.30;52.60;;;;;;5031071;28;20207;-69
2023/04/17 04:31:49;;;;;;;0.60;0.60;;;19.30;52.60;;;;;;5025748;28;20216;-69
2023/04/17 04:34:15;;;;;;;0.63;0.50;;;19.30;52.60;;;;;;5038773;28;20234;-69
2023/04/17 04:36:48;;;;;;;0.50;0.50;;;19.40;52.80;;;;;;5030945;28;20179;-69
2023/04/17 04:39:21;;;;;;;0.57;0.50;;;19.40;52.70;;;;;;5023085;28;20183;-69
2023/04/17 04:41:50;;;;;;;0.50;0.50;;;19.30;52.60;;;;;;5030289;28;20685;-69
2023/04/17 04:44:20;;;;;;;0.70;0.50;;;19.30;52.70;;;;;;5030561;28;20187;-69
2023/04/17 04:46:51;;;;;;;0.45;0.45;;;19.30;52.60;;;;;;5023405;28;20184;-69
2023/04/17 04:49:17;;;;;;;0.60;0.60;;;19.30;52.60;;;;;;5031081;28;20256;-69
2023/04/17 04:51:43;;;;;;;0.45;0.40;;;19.30;52.70;;;;;;5030816;28;20215;-69
2023/04/17 04:54:10;;;;;;;0.60;0.60;;;19.30;52.70;;;;;;5032004;28;20187;-69
2023/04/17 04:56:44;;;;;;;0.40;0.40;;;19.30;52.70;;;;;;5031132;28;20551;-70
2023/04/17 04:59:11;;;;;;;0.47;0.47;;;19.30;52.60;;;;;;5030701;28;20266;-69
2023/04/17 05:01:43;;;;;;;0.82;0.50;;;19.30;52.70;;;;;;5030514;28;20210;-69
2023/04/17 05:04:10;;;;;;;0.60;0.60;;;19.30;52.70;;;;;;5030521;28;20187;-69
2023/04/17 05:06:37;;;;;;;0.85;0.60;;;19.40;52.80;;;;;;5031000;28;20191;-70
2023/04/17 05:09:03;;;;;;;0.60;0.60;;;19.30;52.70;;;;;;5030721;28;20261;-70
2023/04/17 05:11:29;;;;;;;0.55;0.55;;;19.40;52.80;;;;;;5030566;28;20207;-69
2023/04/17 05:13:56;;;;;;;0.70;0.57;;;19.30;52.70;;;;;;5030273;28;20187;-70
2023/04/17 05:16:28;;;;;;;0.45;0.45;;;19.30;52.70;;;;;;5030621;28;20271;-69
2023/04/17 05:18:55;;;;;;;0.60;0.60;;;19.40;52.80;;;;;;5030797;28;20191;-70
2023/04/17 05:21:36;;;;;;;0.40;0.40;;;19.30;52.70;;;;;;5024097;28;20686;-70
2023/04/17 05:24:02;;;;;;;0.50;0.47;;;19.40;52.80;;;;;;5027551;28;20190;-69
2023/04/17 05:26:28;;;;;;;0.40;0.40;;;19.40;52.80;;;;;;5030357;28;20241;-69
2023/04/17 05:28:54;;;;;;;0.43;0.43;;;19.40;52.80;;;;;;5030559;28;20199;-70
2023/04/17 05:31:23;;;;;;;0.50;0.50;;;19.40;52.80;;;;;;5022464;28;20213;-70
2023/04/17 05:33:49;;;;;;;0.90;0.73;;;19.40;52.80;;;;;;5030419;28;20192;-70
2023/04/17 05:36:16;;;;;;;0.60;0.60;;;19.40;52.80;;;;;;5030144;28;20180;-69
2023/04/17 05:38:42;;;;;;;0.50;0.50;;;19.30;52.70;;;;;;5027350;28;20192;-70
2023/04/17 05:41:09;;;;;;;1.60;0.50;;;19.40;52.80;;;;;;5036911;28;20220;-69
2023/04/17 05:43:36;;;;;;;0.60;0.60;;;19.40;52.90;;;;;;5031594;28;20190;-70
2023/04/17 05:46:02;;;;;;;0.50;0.50;;;19.40;52.80;;;;;;5038795;28;20678;-70
2023/04/17 05:48:28;;;;;;;1.10;0.60;;;19.40;52.80;;;;;;5030211;28;20671;-70
2023/04/17 05:50:55;;;;;;;0.65;0.65;;;19.40;52.90;;;;;;5027181;28;20188;-70
2023/04/17 05:53:21;;;;;;;0.75;0.50;;;19.40;53.40;;;;;;5029556;28;20187;-70
2023/04/17 05:55:50;;;;;;;0.52;0.52;;;19.40;52.90;;;;;;5014915;28;20187;-69
2023/04/17 05:58:16;;;;;;;0.95;0.63;;;19.30;52.80;;;;;;5033940;28;20198;-70
2023/04/17 06:00:43;;;;;;;1.17;0.45;;;19.30;52.80;;;;;;5033665;28;20179;-70
2023/04/17 06:03:12;;;;;;;0.60;0.60;;;19.40;52.90;;;;;;5019319;28;20194;-69
2023/04/17 06:05:39;;;;;;;0.40;0.40;;;19.40;52.90;;;;;;5033896;28;20273;-70
2023/04/17 06:08:05;;;;;;;0.93;0.85;;;19.40;52.90;;;;;;5031253;28;20326;-69
2023/04/17 06:10:32;;;;;;;1.48;0.60;;;19.30;52.80;;;;;;5033918;28;20183;-68
2023/04/17 06:13:00;;;;;;;0.73;0.50;;;19.40;52.90;;;;;;5004824;28;20215;-68
2023/04/17 06:15:26;;;;;;;1.15;0.50;;;19.40;52.90;;;;;;5033428;28;20187;-70
2023/04/17 06:17:52;;;;;;;0.70;0.50;;;19.40;52.90;;;;;;5030091;28;20186;-69
2023/04/17 06:20:18;;;;;;;0.60;0.60;;;19.40;52.90;;;;;;5048996;28;20195;-69
2023/04/17 06:22:45;;;;;;;0.50;0.50;;;19.40;52.90;;;;;;5033296;28;20647;-69
2023/04/17 06:25:12;;;;;;;0.85;0.50;;;19.40;52.90;;;;;;5016730;28;20250;-70
2023/04/17 06:27:39;;;;;;;0.73;0.52;;;19.40;52.90;;;;;;5033270;28;20551;-69
2023/04/17 06:30:06;;;;;;;0.50;0.50;;;19.40;52.90;;;;;;5031027;28;20210;-69
2023/04/17 06:32:42;;;;;;;0.50;0.50;;;19.40;53.20;;;;;;5032826;28;20202;-70
2023/04/17 06:35:10;;;;;;;2.95;0.50;;;19.40;52.90;;;;;;5030778;28;20199;-69
2023/04/17 06:37:42;;;;;;;0.60;0.45;;;19.40;52.90;;;;;;5033127;28;20179;-70
2023/04/17 06:40:11;;;;;;;0.47;0.47;;;19.40;52.90;;;;;;5032960;28;20206;-70
2023/04/17 06:42:36;;;;;;;0.60;0.60;;;19.40;52.90;;;;;;5033068;28;20218;-70
2023/04/17 06:45:04;;;;;;;0.65;0.65;;;19.40;52.90;;;;;;5033064;28;20194;-69
2023/04/17 06:47:30;;;;;;;0.52;0.50;;;19.40;52.90;;;;;;5033997;28;20261;-70
2023/04/17 06:49:58;;;;;;;0.88;0.60;;;19.40;52.90;;;;;;5032788;28;20303;-70
2023/04/17 06:52:25;;;;;;;1.00;0.55;;;19.40;52.90;;;;;;5032432;28;20202;-70
2023/04/17 06:54:53;;;;;;;0.93;0.68;;;19.40;52.90;;;;;;5032847;28;20258;-70
2023/04/17 06:57:20;;;;;;;1.58;0.57;;;19.40;52.90;;;;;;5032783;28;20278;-69
2023/04/17 06:59:47;;;;;;;0.38;0.38;;;19.40;53.00;;;;;;5034204;28;20298;-70
2023/04/17 07:02:13;;;;;;;0.70;0.40;;;19.40;53.00;;;;;;5032215;28;20276;-69
2023/04/17 07:04:39;;;;;;;0.50;0.50;;;19.40;52.90;;;;;;5032838;28;20278;-70
2023/04/17 07:07:04;;;;;;;1.33;0.70;;;19.40;52.90;;;;;;5032696;28;20187;-70
2023/04/17 07:09:30;;;;;;;0.40;0.40;;;19.40;52.90;;;;;;5032682;28;20199;-70
2023/04/17 07:11:57;;;;;;;0.55;0.52;;;19.40;53.00;;;;;;5015651;28;20218;-69
2023/04/17 07:14:22;;;;;;;0.40;0.40;;;19.40;52.90;;;;;;5032409;28;20192;-70
2023/04/17 07:16:49;;;;;;;0.50;0.50;;;19.40;52.90;;;;;;5032379;28;20228;-70
2023/04/17 07:19:15;;;;;;;1.27;0.60;;;19.40;52.90;;;;;;5032131;28;20658;-70
2023/04/17 07:21:40;;;;;;;0.50;0.50;;;19.40;53.00;;;;;;5032123;28;20226;-70
2023/04/17 07:24:06;;;;;;;1.23;0.57;;;19.40;53.00;;;;;;5015687;28;20195;-69
2023/04/17 07:26:32;;;;;;;1.00;0.50;;;19.40;53.00;;;;;;5032105;28;20195;-69
2023/04/17 07:28:58;;;;;;;0.63;0.60;;;19.40;53.00;;;;;;5015448;28;20223;-70
2023/04/17 07:31:23;;;;;;;0.60;0.40;;;19.40;53.00;;;;;;5033007;28;20208;-70
2023/04/17 07:33:49;;;;;;;0.60;0.60;;;19.40;53.00;;;;;;5031826;28;20199;-70
2023/04/17 07:36:15;;;;;;;2.15;0.50;;;19.40;53.00;;;;;;5031821;28;20229;-69
2023/04/17 07:38:41;;;;;;;0.95;0.55;;;19.40;53.00;;;;;;5031867;28;20194;-69
2023/04/17 07:41:07;;;;;;;0.50;0.50;;;19.40;53.00;;;;;;5032921;28;20211;-70
2023/04/17 07:43:32;;;;;;;0.43;0.43;;;19.40;53.00;;;;;;5031566;28;20191;-70
2023/04/17 07:45:58;;;;;;;0.65;0.60;;;19.40;53.00;;;;;;5033281;28;20209;-70
2023/04/17 07:48:26;;;;;;;0.77;0.55;;;19.40;53.00;;;;;;5031402;28;20222;-70
2023/04/17 07:50:51;;;;;;;0.85;0.50;;;19.40;53.00;;;;;;5031624;28;20274;-69
2023/04/17 07:53:17;;;;;;;0.40;0.40;;;19.40;53.00;;;;;;5031344;28;20357;-69
2023/04/17 07:55:43;;;;;;;0.55;0.55;;;19.40;53.00;;;;;;5031569;28;20190;-70
2023/04/17 07:58:10;;;;;;;0.40;0.40;;;19.40;53.00;;;;;;5023196;28;20274;-70
2023/04/17 08:00:42;;;;;;;0.40;0.40;;;19.40;53.00;;;;;;5032715;28;20219;-69
2023/04/17 08:03:08;;;;;;;0.68;0.40;;;19.40;53.00;;;;;;5014698;28;20201;-69
2023/04/17 08:05:34;;;;;;;0.40;0.40;;;19.40;53.00;;;;;;5031486;28;20183;-69
2023/04/17 08:07:59;;;;;;;1.08;0.57;;;19.40;53.00;;;;;;5032727;28;20184;-70
2023/04/17 08:10:27;;;;;;;0.50;0.50;;;19.40;53.00;;;;;;5031141;28;20574;-70
2023/04/17 08:12:54;;;;;;;0.50;0.50;;;19.40;53.00;;;;;;5032206;28;20261;-69
2023/04/17 08:15:20;;;;;;;0.70;0.70;;;19.40;53.00;;;;;;5031575;28;20182;-70
2023/04/17 08:17:46;;;;;;;0.60;0.50;;;19.40;53.10;;;;;;5031223;28;20569;-70
2023/04/17 08:20:12;;;;;;;0.60;0.60;;;19.40;53.00;;;;;;5030711;28;20195;-70
2023/04/17 08:22:43;;;;;;;0.57;0.50;;;19.40;53.00;;;;;;5032143;28;20264;-69
2023/04/17 08:25:10;;;;;;;2.33;0.60;;;19.40;53.00;;;;;;5031234;28;20206;-69
2023/04/17 08:27:37;;;;;;;0.68;0.60;;;19.40;53.00;;;;;;5031299;28;20191;-70
2023/04/17 08:30:09;;;;;;;0.50;0.50;;;19.40;53.00;;;;;;5031106;28;20254;-70
2023/04/17 08:32:44;;;;;;;0.50;0.50;;;19.40;53.00;;;;;;5010669;28;20203;-70
2023/04/17 08:35:11;;;;;;;0.82;0.40;;;19.40;53.00;;;;;;5035954;28;20193;-69
2023/04/17 08:37:38;;;;;;;0.60;0.30;;;19.40;53.00;;;;;;5032287;28;20662;-70
2023/04/17 08:40:08;;;;;;;0.60;0.50;;;19.40;53.00;;;;;;5031270;28;20657;-70
2023/04/17 08:42:38;;;;;;;0.57;0.57;;;19.40;52.90;;;;;;5014174;28;20206;-69
2023/04/17 08:45:10;;;;;;;1.25;0.70;;;19.40;53.00;;;;;;5032045;28;20214;-69
2023/04/17 08:47:40;;;;;;;0.60;0.60;;;19.40;53.00;;;;;;5003185;28;20291;-69
2023/04/17 08:50:12;;;;;;;1.05;0.60;;;19.40;53.00;;;;;;5027114;28;20211;-70
2023/04/17 08:52:44;;;;;;;0.60;0.60;;;19.40;53.00;;;;;;5030873;28;20222;-70
2023/04/17 08:55:14;;;;;;;0.85;0.80;;;19.40;53.00;;;;;;5030772;28;20190;-69
2023/04/17 08:58:05;;;;;;;0.60;0.60;;;19.40;53.00;;;;;;5002433;28;20195;-70
2023/04/17 09:00:42;;;;;;;0.63;0.60;;;19.40;53.00;;;;;;5029662;28;20245;-69
2023/04/17 09:03:13;;;;;;;0.60;0.60;;;19.40;53.00;;;;;;5014067;28;20187;-70
2023/04/17 09:05:42;;;;;;;0.63;0.63;;;19.40;53.00;;;;;;5030674;28;20188;-70
2023/04/17 09:08:15;;;;;;;0.82;0.70;;;19.40;53.00;;;;;;5030406;28;20187;-70
2023/04/17 09:10:45;;;;;;;1.23;0.52;;;19.40;52.90;;;;;;5023073;28;20187;-70
2023/04/17 09:13:14;;;;;;;0.95;0.85;;;19.50;53.00;;;;;;5031195;28;20195;-68
2023/04/17 09:15:42;;;;;;;0.88;0.80;;;19.50;53.00;;;;;;5030633;28;20188;-70
2023/04/17 09:18:31;;;;;;;1.10;0.98;;;19.50;53.00;;;;;;5030900;28;20187;-70
2023/04/17 09:20:59;;;;;;;0.98;0.88;;;19.50;53.00;;;;;;5035534;28;20188;-69
2023/04/17 09:23:26;;;;;;;0.80;0.80;;;19.50;52.90;;;;;;5012258;28;20184;-70
2023/04/17 09:26:10;;;;;;;0.70;0.70;;;19.50;53.00;;;;;;5030532;28;20219;-70
2023/04/17 09:28:40;;;;;;;0.60;0.60;;;19.50;53.00;;;;;;5030656;28;20203;-70
2023/04/17 09:31:17;;;;;;;0.60;0.60;;;19.50;53.00;;;;;;5031801;28;20239;-70
2023/04/17 09:34:12;;;;;;;0.90;0.90;;;19.50;53.00;;;;;;5014785;28;20587;-70
2023/04/17 09:36:42;;;;;;;0.80;0.80;;;19.50;53.00;;;;;;5025955;28;20201;-69
2023/04/17 09:39:22;;;;;;;0.60;0.60;;;19.50;53.00;;;;;;5034253;28;20191;-70
2023/04/17 09:41:49;;;;;;;1.08;0.82;;;19.50;52.90;;;;;;5027482;28;20203;-70
2023/04/17 09:44:28;;;;;;;0.90;0.90;;;19.50;52.90;;;;;;5034018;28;20207;-70
2023/04/17 09:46:55;;;;;;;0.80;0.80;;;19.50;52.90;;;;;;5018225;28;20210;-70
2023/04/17 09:49:48;;;;;;;1.00;0.90;;;19.50;52.90;;;;;;5025645;28;20303;-70
2023/04/17 09:52:22;;;;;;;0.80;0.80;;;19.50;52.90;;;;;;5033517;28;20224;-69
2023/04/17 09:54:53;;;;;;;0.88;0.88;;;19.50;52.90;;;;;;5050355;28;20201;-69
2023/04/17 09:57:19;;;;;;;0.80;0.80;;;19.60;53.00;;;;;;5034978;28;20206;-70
2023/04/17 09:59:49;;;;;;;1.30;0.68;;;19.60;53.00;;;;;;5013009;28;20590;-70
2023/04/17 10:02:17;;;;;;;0.70;0.70;;;19.50;52.90;;;;;;5030114;28;20284;-69
2023/04/17 10:04:45;;;;;;;0.88;0.88;;;19.50;52.90;;;;;;5033673;28;20198;-69
2023/04/17 10:07:12;;;;;;;0.90;0.90;;;19.60;53.00;;;;;;5017459;28;20241;-70
2023/04/17 10:09:44;;;;;;;1.08;0.98;;;19.50;52.90;;;;;;5034609;28;20198;-70
2023/04/17 10:12:16;;;;;;;0.80;0.80;;;19.50;52.90;;;;;;5033271;28;20305;-70
2023/04/17 10:14:47;;;;;;;0.93;0.82;;;19.50;52.90;;;;;;5026945;28;20175;-70
2023/04/17 10:17:30;;;;;;;1.02;1.00;;;19.60;53.00;;;;;;5034947;28;20646;-70
2023/04/17 10:20:22;;;;;;;0.90;0.90;;;19.50;52.90;;;;;;5033704;28;20183;-70
2023/04/17 10:22:55;;;;;;;1.00;0.90;;;19.60;52.90;;;;;;5033086;28;20211;-70
2023/04/17 10:25:28;;;;;;;0.77;0.75;;;19.60;52.90;;;;;;5034152;28;20286;-69
2023/04/17 10:27:59;;;;;;;0.73;0.73;;;19.60;52.80;;;;;;5033426;28;20210;-69
2023/04/17 10:30:53;;;;;;;1.02;0.93;;;19.60;52.90;;;;;;5034325;28;20198;-69
2023/04/17 10:33:24;;;;;;;1.00;0.93;;;19.60;52.80;;;;;;5016650;28;20195;-69
2023/04/17 10:35:50;;;;;;;1.33;1.23;;;19.60;52.80;;;;;;5033445;28;20183;-69
2023/04/17 10:38:31;;;;;;;1.00;1.00;;;19.60;52.90;;;;;;5032903;28;20241;-69
2023/04/17 10:41:07;;;;;;;1.05;1.05;;;19.60;52.90;;;;;;5032604;28;20191;-69
2023/04/17 10:43:33;;;;;;;1.00;1.00;;;19.60;52.80;;;;;;5031711;28;20238;-69
2023/04/17 10:46:12;;;;;;;1.00;1.00;;;19.60;52.80;;;;;;5032881;28;20230;-70
2023/04/17 10:48:51;;;;;;;1.30;1.10;;;19.60;52.80;;;;;;5032209;28;20207;-70
2023/04/17 10:51:41;;;;;;;1.63;1.20;;;19.60;52.80;;;;;;5013311;28;20211;-69
2023/04/17 10:54:09;;;;;;;1.63;1.52;;;19.60;52.80;;;;;;5033017;28;20651;-69
2023/04/17 10:56:47;;;;;;;1.15;1.10;;;19.60;52.80;;;;;;5032045;28;20184;-70
2023/04/17 10:59:16;;;;;;;1.23;1.13;;;19.60;52.80;;;;;;5033903;28;20199;-70
2023/04/17 11:01:48;;;;;;;1.52;1.42;;;19.60;52.80;;;;;;5032633;28;20207;-69
2023/04/17 11:04:28;;;;;;;1.10;1.10;;;19.60;53.40;;;;;;5030187;28;20222;-70
2023/04/17 11:06:54;;;;;;;0.93;0.93;;;19.60;52.90;;;;;;5030908;28;20193;-69
2023/04/17 11:09:23;;;;;;;1.35;1.15;;;19.60;52.80;;;;;;5032437;28;20290;-69
2023/04/17 11:11:50;;;;;;;1.20;1.10;;;19.60;52.90;;;;;;5032045;28;20215;-68
2023/04/17 11:14:18;;;;;;;1.65;1.40;;;19.60;52.90;;;;;;5032638;28;20197;-69
2023/04/17 11:16:48;;;;;;;2.92;1.42;;;19.60;52.80;;;;;;5026600;28;20244;-69
2023/04/17 11:19:23;;;;;;;1.83;1.08;;;19.60;52.80;;;;;;5032376;28;20237;-70
2023/04/17 11:21:52;;;;;;;1.38;1.10;;;19.60;52.80;;;;;;5028428;28;20335;-70
2023/04/17 11:24:31;;;;;;;1.10;1.10;;;19.60;52.70;;;;;;5031768;28;20199;-69
2023/04/17 11:26:59;;;;;;;1.55;1.45;;;19.60;52.70;;;;;;5027052;28;20268;-70
2023/04/17 11:29:26;;;;;;;1.10;1.10;;;19.70;52.80;;;;;;5033262;28;20222;-69
2023/04/17 11:31:55;;;;;;;1.48;1.38;;;19.70;52.80;;;;;;5025970;28;20569;-69
2023/04/17 11:34:21;;;;;;;1.40;1.30;;;19.70;52.80;;;;;;5034427;28;20187;-70
2023/04/17 11:36:55;;;;;;;1.45;1.10;;;19.70;52.80;;;;;;5032006;28;20191;-69
2023/04/17 11:39:31;;;;;;;1.45;1.35;;;19.70;52.80;;;;;;5035137;28;20192;-70
2023/04/17 11:41:57;;;;;;;1.20;1.10;;;19.70;52.80;;;;;;5015188;28;20213;-69
2023/04/17 11:44:24;;;;;;;1.83;1.20;;;19.70;52.80;;;;;;5031539;28;20191;-69
2023/04/17 11:46:52;;;;;;;1.38;1.27;;;19.70;52.70;;;;;;5033017;28;20197;-70
2023/04/17 11:49:36;;;;;;;1.30;1.20;;;19.70;52.70;;;;;;4995659;28;20211;-70
2023/04/17 11:52:03;;;;;;;1.88;1.40;;;19.70;52.80;;;;;;5022391;28;20212;-69
2023/04/17 11:54:38;;;;;;;1.40;1.30;;;19.70;52.80;;;;;;5029717;28;20589;-69
2023/04/17 11:57:13;;;;;;;1.15;1.10;;;19.60;52.80;;;;;;5032809;28;20201;-69
2023/04/17 11:59:44;;;;;;;1.10;1.10;;;19.60;52.90;;;;;;5015368;28;20191;-70
2023/04/17 12:02:11;;;;;;;1.10;1.02;;;19.60;52.80;;;;;;5032520;28;20239;-69
2023/04/17 12:04:38;;;;;;;1.70;1.10;;;19.60;52.80;;;;;;5032609;28;20179;-70
2023/04/17 12:07:06;;;;;;;1.20;1.10;;;19.60;52.80;;;;;;5032598;28;20196;-69
2023/04/17 12:09:34;;;;;;;1.33;1.17;;;19.60;53.00;;;;;;5031108;28;20211;-71
2023/04/17 12:12:05;;;;;;;1.60;1.50;;;19.70;52.90;;;;;;5031374;28;20214;-70
2023/04/17 12:14:31;;;;;;;1.20;1.10;;;19.70;52.90;;;;;;5031235;28;20226;-70
2023/04/17 12:16:58;;;;;;;1.67;1.27;;;19.70;52.90;;;;;;5031668;28;20286;-69
2023/04/17 12:19:25;;;;;;;1.40;1.30;;;19.70;52.80;;;;;;5032829;28;20249;-70
2023/04/17 12:21:51;;;;;;;1.40;1.27;;;19.70;52.90;;;;;;5032253;28;20207;-69
2023/04/17 12:24:18;;;;;;;1.52;1.27;;;19.70;52.90;;;;;;5031213;28;20221;-69
2023/04/17 12:26:49;;;;;;;1.38;1.10;;;19.70;52.80;;;;;;5032231;28;20191;-69
2023/04/17 12:29:15;;;;;;;1.30;1.20;;;19.70;52.90;;;;;;5031363;28;20206;-69
2023/04/17 12:31:41;;;;;;;2.05;1.23;;;19.70;52.80;;;;;;5031982;28;20565;-69
2023/04/17 12:34:07;;;;;;;1.40;1.30;;;19.70;52.80;;;;;;5032081;28;20187;-70
2023/04/17 12:36:33;;;;;;;1.15;1.15;;;19.70;52.90;;;;;;5032053;28;20186;-69
2023/04/17 12:38:59;;;;;;;1.30;1.20;;;19.70;53.10;;;;;;5032145;28;20205;-69
2023/04/17 12:41:25;;;;;;;1.10;1.10;;;19.70;53.30;;;;;;5024900;28;20214;-69
2023/04/17 12:43:53;;;;;;;1.60;1.50;;;19.70;53.30;;;;;;5031870;28;20278;-69
2023/04/17 12:46:20;;;;;;;1.00;1.00;;;19.70;53.20;;;;;;5032390;28;20191;-70
2023/04/17 12:48:45;;;;;;;1.67;1.20;;;19.70;53.00;;;;;;5030688;28;20367;-70
2023/04/17 12:51:11;;;;;;;1.35;1.20;;;19.60;53.10;;;;;;5031099;28;20645;-69
2023/04/17 12:53:37;;;;;;;1.48;1.10;;;19.70;53.40;;;;;;5014527;28;20618;-69
2023/04/17 12:56:04;;;;;;;2.30;1.15;;;19.70;53.30;;;;;;5031191;28;20195;-69